Time;durP1;ratioP1;P1;durP2;ratioP2;P2;SDS_P1;SDS_P2;PMS_P1;PMS_P2;Temp;Humidity;BMP_temperature;BMP_pressure;BME280_temperature;BME280_humidity;BME280_pressure;Samples;Min_cycle;Max_cycle;Signal;HPM_P1;HPM_P2
2021/06/16 00:01:50;;;;;;;;;;;18.70;92.90;;;;;;5017969;28;19960;-84
2021/06/16 00:04:16;;;;;;;;;;;18.70;91.70;;;;;;5017596;28;19948;-85
2021/06/16 00:06:41;;;;;;;;;;;18.70;92.60;;;;;;5017840;28;20003;-84
2021/06/16 00:09:07;;;;;;;;;;;18.70;92.20;;;;;;5016297;28;19910;-85
2021/06/16 00:11:33;;;;;;;;;;;18.60;92.50;;;;;;5016218;28;20000;-84
2021/06/16 00:13:59;;;;;;;;;;;18.60;93.50;;;;;;5017228;28;19918;-85
2021/06/16 00:16:24;;;;;;;;;;;18.60;92.70;;;;;;5016185;28;19967;-85
2021/06/16 00:18:50;;;;;;;;;;;18.60;93.30;;;;;;5017045;28;19909;-85
2021/06/16 00:21:16;;;;;;;;;;;18.60;93.30;;;;;;5017323;28;20330;-84
2021/06/16 00:23:41;;;;;;;;;;;18.60;93.40;;;;;;5017214;28;19981;-84
2021/06/16 00:26:07;;;;;;;;;;;18.50;93.30;;;;;;5017247;28;19909;-84
2021/06/16 00:28:33;;;;;;;;;;;18.50;92.90;;;;;;5017053;28;19910;-85
2021/06/16 00:30:59;;;;;;;;;;;18.50;92.80;;;;;;5017003;28;20373;-86
2021/06/16 00:33:24;;;;;;;;;;;18.50;92.70;;;;;;5016651;28;19910;-84
2021/06/16 00:35:50;;;;;;;;;;;18.50;93.00;;;;;;5017083;28;20269;-84
2021/06/16 00:38:15;;;;;;;;;;;18.50;93.40;;;;;;5015577;28;19913;-85
2021/06/16 00:40:41;;;;;;;;;;;18.50;93.30;;;;;;5016791;28;19917;-85
2021/06/16 00:43:06;;;;;;;;;;;18.50;93.20;;;;;;5016203;28;19909;-84
2021/06/16 00:45:32;;;;;;;;;;;18.50;93.10;;;;;;5016509;28;19909;-84
2021/06/16 00:47:58;;;;;;;;;;;18.50;92.70;;;;;;5016508;28;19964;-85
2021/06/16 00:50:26;;;;;;;;;;;18.50;93.10;;;;;;5015359;28;19925;-85
2021/06/16 00:52:52;;;;;;;;;;;18.40;92.70;;;;;;5016408;28;19956;-85
2021/06/16 00:55:17;;;;;;;;;;;18.40;92.60;;;;;;5015290;28;19949;-85
2021/06/16 00:57:43;;;;;;;;;;;18.30;92.60;;;;;;5014877;28;19910;-84
2021/06/16 01:00:10;;;;;;;;;;;18.30;93.50;;;;;;5015847;28;19913;-84
2021/06/16 01:02:47;;;;;;;;;;;18.20;93.60;;;;;;5015113;28;19913;-85
2021/06/16 01:05:13;;;;;;;;;;;18.20;93.50;;;;;;5015109;28;19996;-84
2021/06/16 01:07:42;;;;;;;;;;;18.20;93.40;;;;;;5015043;28;19968;-86
2021/06/16 01:10:11;;;;;;;;;;;18.20;93.00;;;;;;5016206;28;19955;-86
2021/06/16 01:12:40;;;;;;;;;;;18.20;94.10;;;;;;5014985;28;19910;-83
2021/06/16 01:15:07;;;;;;;;;;;18.20;94.10;;;;;;5015995;28;20315;-84
2021/06/16 01:17:35;;;;;;;;;;;18.20;94.30;;;;;;5016052;28;20368;-84
2021/06/16 01:20:19;;;;;;;;;;;18.10;93.30;;;;;;5016131;28;20338;-83
2021/06/16 01:22:53;;;;;;;;;;;18.20;94.30;;;;;;5015987;28;19925;-83
2021/06/16 01:25:29;;;;;;;;;;;18.20;94.90;;;;;;5016402;28;19909;-83
2021/06/16 01:27:56;;;;;;;;;;;18.20;94.40;;;;;;5015717;28;20256;-84
2021/06/16 01:30:23;;;;;;;;;;;18.20;94.20;;;;;;5016004;28;19914;-83
2021/06/16 01:32:48;;;;;;;;;;;18.20;95.10;;;;;;5014702;28;19917;-84
2021/06/16 01:35:14;;;;;;;;;;;18.20;94.20;;;;;;5015695;28;19917;-83
2021/06/16 01:37:40;;;;;;;;;;;18.20;93.50;;;;;;5014548;28;19915;-86
2021/06/16 01:40:06;;;;;;;;;;;18.20;94.80;;;;;;5014648;28;19918;-85
2021/06/16 01:42:31;;;;;;;;;;;18.20;95.30;;;;;;5015606;28;20273;-86
2021/06/16 01:44:57;;;;;;;;;;;18.20;94.10;;;;;;5015535;28;19909;-86
2021/06/16 01:47:23;;;;;;;;;;;18.20;94.10;;;;;;5015341;28;19909;-86
2021/06/16 01:49:52;;;;;;;;;;;18.20;94.20;;;;;;5015666;28;19909;-85
2021/06/16 01:52:18;;;;;;;;;;;18.20;94.70;;;;;;5014512;28;19931;-83
2021/06/16 01:54:44;;;;;;;;;;;18.20;94.60;;;;;;5015289;28;19976;-85
2021/06/16 01:57:10;;;;;;;;;;;18.20;94.20;;;;;;5014655;28;19910;-83
2021/06/16 01:59:39;;;;;;;;;;;18.20;94.40;;;;;;5014099;28;19914;-82
2021/06/16 02:02:05;;;;;;;;;;;18.20;94.60;;;;;;5014187;28;19980;-83
2021/06/16 02:04:32;;;;;;;;;;;18.20;94.80;;;;;;5014970;28;20360;-83
2021/06/16 02:07:08;;;;;;;;;;;18.20;94.70;;;;;;5012529;28;19909;-84
2021/06/16 02:09:35;;;;;;;;;;;18.20;95.00;;;;;;5013985;28;19916;-84
2021/06/16 02:12:02;;;;;;;;;;;18.20;95.10;;;;;;5012885;28;20383;-84
2021/06/16 02:14:27;;;;;;;;;;;18.20;94.80;;;;;;5013934;28;19924;-84
2021/06/16 02:16:57;;;;;;;;;;;18.20;94.80;;;;;;5014145;28;19909;-84
2021/06/16 02:19:30;;;;;;;;;;;18.30;94.30;;;;;;5014105;28;20340;-84
2021/06/16 02:21:56;;;;;;;;;;;18.30;94.10;;;;;;5013928;28;19914;-84
2021/06/16 02:24:23;;;;;;;;;;;18.30;94.00;;;;;;5014938;28;19915;-83
2021/06/16 02:26:48;;;;;;;;;;;18.30;93.50;;;;;;5014936;28;20292;-84
2021/06/16 02:29:14;;;;;;;;;;;18.40;93.70;;;;;;5014943;28;19909;-85
2021/06/16 02:31:40;;;;;;;;;;;18.30;93.30;;;;;;5016017;28;19910;-85
2021/06/16 02:34:06;;;;;;;;;;;18.40;93.50;;;;;;5014979;28;19922;-83
2021/06/16 02:36:37;;;;;;;;;;;18.40;93.10;;;;;;5014883;28;19914;-84
2021/06/16 02:39:04;;;;;;;;;;;18.40;93.60;;;;;;5014815;28;20221;-84
2021/06/16 02:41:30;;;;;;;;;;;18.40;93.00;;;;;;5014977;28;19916;-84
2021/06/16 02:43:56;;;;;;;;;;;18.40;93.10;;;;;;5014719;28;19914;-84
2021/06/16 02:46:22;;;;;;;;;;;18.40;93.10;;;;;;5014862;28;19910;-84
2021/06/16 02:48:49;;;;;;;;;;;18.40;93.10;;;;;;5013960;28;19932;-84
2021/06/16 02:51:15;;;;;;;;;;;18.40;93.40;;;;;;5013532;28;20427;-84
2021/06/16 02:53:41;;;;;;;;;;;18.40;92.80;;;;;;5014644;28;19964;-84
2021/06/16 02:56:07;;;;;;;;;;;18.40;93.20;;;;;;5014647;28;19921;-84
2021/06/16 02:58:34;;;;;;;;;;;18.50;93.40;;;;;;5014718;28;20127;-84
2021/06/16 03:01:01;;;;;;;;;;;18.50;93.30;;;;;;5013820;28;19909;-84
2021/06/16 03:03:27;;;;;;;;;;;18.50;93.10;;;;;;5016359;28;19913;-83
2021/06/16 03:05:54;;;;;;;;;;;18.50;93.10;;;;;;5014788;28;19915;-84
2021/06/16 03:08:21;;;;;;;;;;;18.60;93.20;;;;;;5014398;28;19956;-83
2021/06/16 03:10:47;;;;;;;;;;;18.60;93.00;;;;;;5013204;28;19916;-84
2021/06/16 03:13:13;;;;;;;;;;;18.60;92.90;;;;;;5012806;28;20001;-84
2021/06/16 03:15:42;;;;;;;;;;;18.60;93.10;;;;;;5014340;28;20295;-84
2021/06/16 03:18:10;;;;;;;;;;;18.70;93.40;;;;;;5014203;28;19909;-84
2021/06/16 03:20:36;;;;;;;;;;;18.70;93.00;;;;;;5014405;28;19914;-84
2021/06/16 03:23:02;;;;;;;;;;;18.80;93.20;;;;;;5013554;28;19910;-82
2021/06/16 03:25:28;;;;;;;;;;;18.80;93.20;;;;;;5014644;28;19909;-83
2021/06/16 03:27:54;;;;;;;;;;;18.90;92.80;;;;;;5014084;28;20083;-83
2021/06/16 03:30:21;;;;;;;;;;;19.00;93.10;;;;;;5014471;28;19976;-83
2021/06/16 03:32:47;;;;;;;;;;;19.00;92.70;;;;;;5014001;28;19914;-84
2021/06/16 03:35:13;;;;;;;;;;;19.10;92.30;;;;;;5014047;28;20285;-83
2021/06/16 03:37:39;;;;;;;;;;;19.20;92.00;;;;;;5014124;28;19920;-85
2021/06/16 03:40:06;;;;;;;;;;;19.30;91.80;;;;;;5014091;28;19909;-84
2021/06/16 03:42:32;;;;;;;;;;;19.30;91.70;;;;;;5012032;28;19917;-83
2021/06/16 03:45:00;;;;;;;;;;;19.40;91.70;;;;;;5012868;28;20431;-83
2021/06/16 03:47:28;;;;;;;;;;;19.40;91.50;;;;;;5013804;28;20387;-84
2021/06/16 03:49:54;;;;;;;;;;;19.50;91.60;;;;;;5012821;28;19957;-84
2021/06/16 03:52:20;;;;;;;;;;;19.50;91.80;;;;;;5014171;28;19909;-84
2021/06/16 03:54:47;;;;;;;;;;;19.60;91.40;;;;;;5013660;28;19925;-83
2021/06/16 03:57:13;;;;;;;;;;;19.60;90.90;;;;;;5013890;28;19917;-83
2021/06/16 03:59:40;;;;;;;;;;;19.60;90.60;;;;;;5014079;28;19910;-83
2021/06/16 04:02:05;;;;;;;;;;;19.70;90.70;;;;;;5012864;28;19909;-83
2021/06/16 04:04:31;;;;;;;;;;;19.70;90.90;;;;;;5012724;28;19959;-83
2021/06/16 04:06:57;;;;;;;;;;;19.60;90.80;;;;;;5013785;28;19910;-83
2021/06/16 04:09:23;;;;;;;;;;;19.60;90.40;;;;;;5012397;28;19933;-84
2021/06/16 04:11:49;;;;;;;;;;;19.60;90.00;;;;;;5013991;28;19915;-83
2021/06/16 04:14:15;;;;;;;;;;;19.60;90.40;;;;;;5012016;28;20261;-83
2021/06/16 04:16:41;;;;;;;;;;;19.60;90.60;;;;;;5012297;28;19915;-83
2021/06/16 04:19:07;;;;;;;;;;;19.50;90.20;;;;;;5015161;28;19913;-84
2021/06/16 04:21:33;;;;;;;;;;;19.50;90.00;;;;;;5017093;28;20251;-84
2021/06/16 04:23:58;;;;;;;;;;;19.40;90.50;;;;;;5017079;28;19963;-85
2021/06/16 04:26:24;;;;;;;;;;;19.40;90.60;;;;;;5016092;28;20252;-84
2021/06/16 04:28:50;;;;;;;;;;;19.40;90.80;;;;;;5016840;28;19964;-84
2021/06/16 04:31:15;;;;;;;;;;;19.40;90.50;;;;;;5017049;28;20321;-87
2021/06/16 04:33:41;;;;;;;;;;;19.30;90.60;;;;;;5020531;28;19920;-85
2021/06/16 04:36:07;;;;;;;;;;;19.30;90.90;;;;;;5025217;28;20390;-84
2021/06/16 04:38:33;;;;;;;;;;;19.40;90.40;;;;;;5016689;28;20370;-84
2021/06/16 04:40:58;;;;;;;;;;;19.40;90.60;;;;;;5015345;28;20060;-85
2021/06/16 04:43:24;;;;;;;;;;;19.40;90.90;;;;;;5015716;28;20307;-84
2021/06/16 04:45:50;;;;;;;;;;;19.50;90.90;;;;;;5016854;28;19910;-85
2021/06/16 04:48:24;;;;;;;;;;;19.60;91.00;;;;;;5015443;28;19916;-84
2021/06/16 04:50:50;;;;;;;;;;;19.70;90.60;;;;;;5016518;28;20383;-85
2021/06/16 04:53:15;;;;;;;;;;;19.80;90.30;;;;;;5016406;28;19979;-85
2021/06/16 04:55:41;;;;;;;;;;;19.90;90.90;;;;;;5016965;28;19993;-85
2021/06/16 04:58:06;;;;;;;;;;;20.10;90.40;;;;;;5016616;28;19909;-85
2021/06/16 05:00:32;;;;;;;;;;;20.10;89.90;;;;;;5016867;28;19910;-83
2021/06/16 05:02:59;;;;;;;;;;;20.20;90.00;;;;;;5014997;28;20331;-84
2021/06/16 05:05:25;;;;;;;;;;;20.30;89.30;;;;;;5016560;28;19913;-85
2021/06/16 05:07:54;;;;;;;;;;;20.40;88.80;;;;;;5014959;28;19909;-85
2021/06/16 05:10:19;;;;;;;;;;;20.50;89.20;;;;;;5016635;28;19917;-87
2021/06/16 05:12:45;;;;;;;;;;;20.60;87.40;;;;;;5016733;28;19909;-88
2021/06/16 05:15:12;;;;;;;;;;;20.60;87.30;;;;;;5014869;28;19925;-87
2021/06/16 05:17:39;;;;;;;;;;;20.70;87.00;;;;;;5016057;28;19920;-86
2021/06/16 05:20:08;;;;;;;;;;;20.70;86.20;;;;;;5016040;28;20047;-86
2021/06/16 05:22:34;;;;;;;;;;;20.80;85.50;;;;;;5016090;28;19910;-85
2021/06/16 05:25:01;;;;;;;;;;;20.80;84.80;;;;;;5015370;28;19916;-86
2021/06/16 05:27:26;;;;;;;;;;;20.80;85.20;;;;;;5014863;28;20268;-86
2021/06/16 05:29:53;;;;;;;;;;;20.80;86.50;;;;;;5026396;28;19913;-86
2021/06/16 05:32:19;;;;;;;;;;;20.80;86.00;;;;;;5014734;28;19997;-86
2021/06/16 05:34:45;;;;;;;;;;;20.80;85.20;;;;;;5015958;28;20012;-88
2021/06/16 05:37:11;;;;;;;;;;;20.90;84.90;;;;;;5016127;28;19917;-87
2021/06/16 05:39:37;;;;;;;;;;;20.90;85.60;;;;;;5014424;28;19913;-87
2021/06/16 05:42:02;;;;;;;;;;;21.00;85.40;;;;;;5014110;28;19910;-86
2021/06/16 05:44:28;;;;;;;;;;;21.00;84.40;;;;;;5014114;28;19913;-86
2021/06/16 05:46:53;;;;;;;;;;;21.00;84.70;;;;;;5015568;28;19909;-86
2021/06/16 05:49:19;;;;;;;;;;;21.00;83.80;;;;;;5014318;28;19964;-86
2021/06/16 05:51:44;;;;;;;;;;;21.10;83.90;;;;;;5015221;28;19909;-86
2021/06/16 05:54:10;;;;;;;;;;;21.20;83.90;;;;;;5013820;28;19925;-87
2021/06/16 05:56:39;;;;;;;;;;;21.30;82.90;;;;;;5015474;28;19960;-86
2021/06/16 05:59:05;;;;;;;;;;;21.40;82.70;;;;;;5014360;28;20011;-86
2021/06/16 06:01:31;;;;;;;;;;;21.50;82.70;;;;;;5015378;28;19979;-85
2021/06/16 06:03:57;;;;;;;;;;;21.70;83.20;;;;;;5013756;28;19909;-86
2021/06/16 06:06:22;;;;;;;;;;;21.80;82.00;;;;;;5015014;28;19916;-86
2021/06/16 06:08:48;;;;;;;;;;;22.00;80.70;;;;;;5014850;28;19910;-84
2021/06/16 06:11:13;;;;;;;;;;;22.10;80.30;;;;;;5015097;28;19956;-83
2021/06/16 06:13:39;;;;;;;;;;;22.20;79.90;;;;;;5015046;28;20366;-82
2021/06/16 06:16:04;;;;;;;;;;;22.30;78.60;;;;;;5014864;28;19917;-83
2021/06/16 06:18:30;;;;;;;;;;;22.30;78.40;;;;;;5014134;28;19910;-84
2021/06/16 06:20:56;;;;;;;;;;;22.40;78.10;;;;;;5014031;28;19933;-83
2021/06/16 06:23:21;;;;;;;;;;;22.50;76.70;;;;;;5012559;28;19917;-85
2021/06/16 06:25:47;;;;;;;;;;;22.60;77.40;;;;;;5012437;28;19956;-85
2021/06/16 06:28:12;;;;;;;;;;;22.70;76.60;;;;;;5013537;28;20391;-84
2021/06/16 06:30:38;;;;;;;;;;;22.70;75.90;;;;;;5013527;28;19993;-83
2021/06/16 06:33:04;;;;;;;;;;;22.80;75.40;;;;;;5012372;28;20284;-84
2021/06/16 06:35:29;;;;;;;;;;;22.80;76.50;;;;;;5014585;28;20331;-84
2021/06/16 06:37:55;;;;;;;;;;;22.90;76.20;;;;;;5013435;28;19917;-84
2021/06/16 06:40:21;;;;;;;;;;;23.00;75.10;;;;;;5014112;28;19909;-84
2021/06/16 06:42:46;;;;;;;;;;;23.10;74.20;;;;;;5014453;28;19975;-84
2021/06/16 06:45:12;;;;;;;;;;;23.10;74.10;;;;;;5013272;28;19917;-84
2021/06/16 06:47:38;;;;;;;;;;;23.20;73.40;;;;;;5014445;28;19914;-84
2021/06/16 06:50:10;;;;;;;;;;;23.20;75.20;;;;;;5013352;28;19972;-84
2021/06/16 06:52:39;;;;;;;;;;;23.20;74.10;;;;;;5014317;28;20078;-85
2021/06/16 06:55:04;;;;;;;;;;;23.20;74.30;;;;;;5013393;28;19917;-85
2021/06/16 06:57:30;;;;;;;;;;;23.20;75.00;;;;;;5014996;28;19910;-84
2021/06/16 06:59:55;;;;;;;;;;;23.20;74.00;;;;;;5013190;28;19920;-84
2021/06/16 07:02:21;;;;;;;;;;;23.20;74.50;;;;;;5014015;28;20398;-84
2021/06/16 07:04:46;;;;;;;;;;;23.20;73.80;;;;;;5014014;28;20388;-84
2021/06/16 07:07:12;;;;;;;;;;;23.30;74.50;;;;;;5012710;28;19913;-84
2021/06/16 07:09:38;;;;;;;;;;;23.40;73.50;;;;;;5014200;28;20260;-85
2021/06/16 07:12:06;;;;;;;;;;;23.50;73.30;;;;;;5014180;28;20430;-85
2021/06/16 07:14:31;;;;;;;;;;;23.60;73.50;;;;;;5014221;28;19940;-85
2021/06/16 07:16:57;;;;;;;;;;;23.60;73.50;;;;;;5012659;28;20000;-84
2021/06/16 07:19:23;;;;;;;;;;;23.70;73.00;;;;;;5014188;28;19963;-84
2021/06/16 07:21:48;;;;;;;;;;;23.80;72.10;;;;;;5014027;28;19909;-84
2021/06/16 07:24:16;;;;;;;;;;;23.90;72.50;;;;;;5012857;28;19910;-84
2021/06/16 07:26:41;;;;;;;;;;;24.20;71.90;;;;;;5014129;28;19910;-84
2021/06/16 07:29:07;;;;;;;;;;;24.40;71.50;;;;;;5013985;28;20383;-85
2021/06/16 07:31:33;;;;;;;;;;;24.60;70.10;;;;;;5014129;28;19932;-84
2021/06/16 07:33:58;;;;;;;;;;;24.80;70.10;;;;;;5012644;28;19917;-82
2021/06/16 07:36:24;;;;;;;;;;;24.90;70.10;;;;;;5014056;28;19992;-85
2021/06/16 07:38:49;;;;;;;;;;;25.00;68.50;;;;;;5014021;28;19929;-84
2021/06/16 07:41:15;;;;;;;;;;;25.10;68.40;;;;;;5014055;28;20374;-83
2021/06/16 07:43:41;;;;;;;;;;;25.20;68.50;;;;;;5013677;28;19910;-83
2021/06/16 07:46:06;;;;;;;;;;;25.20;68.40;;;;;;5012397;28;19910;-83
2021/06/16 07:48:32;;;;;;;;;;;25.20;68.30;;;;;;5012542;28;19913;-83
2021/06/16 07:50:57;;;;;;;;;;;25.20;68.60;;;;;;5013820;28;19909;-85
2021/06/16 07:53:23;;;;;;;;;;;25.20;69.10;;;;;;5015969;28;19975;-82
2021/06/16 07:55:48;;;;;;;;;;;25.20;68.30;;;;;;5016154;28;19917;-83
2021/06/16 07:58:14;;;;;;;;;;;25.10;68.10;;;;;;5017383;28;19916;-83
2021/06/16 08:00:40;;;;;;;;;;;25.10;68.10;;;;;;5017344;28;19909;-83
2021/06/16 08:03:05;;;;;;;;;;;25.10;68.40;;;;;;5017457;28;19996;-83
2021/06/16 08:05:31;;;;;;;;;;;25.10;68.50;;;;;;5017671;28;19917;-83
2021/06/16 08:07:56;;;;;;;;;;;25.00;68.30;;;;;;5017271;28;20340;-84
2021/06/16 08:10:22;;;;;;;;;;;25.00;68.60;;;;;;5017401;28;19909;-84
2021/06/16 08:12:48;;;;;;;;;;;24.90;68.40;;;;;;5017410;28;19932;-84
2021/06/16 08:15:13;;;;;;;;;;;24.80;68.70;;;;;;5015678;28;20291;-84
2021/06/16 08:17:39;;;;;;;;;;;24.70;69.20;;;;;;5017216;28;20275;-84
2021/06/16 08:20:05;;;;;;;;;;;24.70;69.20;;;;;;5016980;28;19909;-84
2021/06/16 08:22:31;;;;;;;;;;;24.70;69.00;;;;;;5016869;28;19909;-84
2021/06/16 08:25:00;;;;;;;;;;;24.60;69.30;;;;;;5017066;28;19913;-84
2021/06/16 08:27:26;;;;;;;;;;;24.60;69.80;;;;;;5015466;28;19916;-84
2021/06/16 08:29:51;;;;;;;;;;;24.50;69.50;;;;;;5016918;28;20000;-85
2021/06/16 08:32:17;;;;;;;;;;;24.50;70.20;;;;;;5015578;28;19910;-84
2021/06/16 08:34:43;;;;;;;;;;;24.70;70.30;;;;;;5016874;28;19925;-84
2021/06/16 08:37:08;;;;;;;;;;;24.80;70.30;;;;;;5016569;28;19910;-84
2021/06/16 08:39:34;;;;;;;;;;;24.90;68.90;;;;;;5016449;28;19909;-84
2021/06/16 08:42:00;;;;;;;;;;;25.10;69.20;;;;;;5016966;28;20038;-85
2021/06/16 08:44:25;;;;;;;;;;;25.20;69.00;;;;;;5016506;28;20319;-84
2021/06/16 08:46:51;;;;;;;;;;;25.30;68.20;;;;;;5015348;28;19953;-84
2021/06/16 08:49:17;;;;;;;;;;;25.30;68.30;;;;;;5016498;28;19916;-84
2021/06/16 08:51:42;;;;;;;;;;;25.30;68.10;;;;;;5015349;28;20364;-84
2021/06/16 08:54:08;;;;;;;;;;;25.40;67.60;;;;;;5015975;28;20295;-85
2021/06/16 08:56:34;;;;;;;;;;;25.40;68.20;;;;;;5018319;28;19917;-85
2021/06/16 08:58:59;;;;;;;;;;;25.40;67.80;;;;;;5017789;28;19913;-85
2021/06/16 09:01:25;;;;;;;;;;;25.40;68.70;;;;;;5015071;28;20348;-85
2021/06/16 09:03:51;;;;;;;;;;;25.50;68.60;;;;;;5015962;28;20352;-85
2021/06/16 09:06:16;;;;;;;;;;;25.50;68.20;;;;;;5016096;28;19913;-84
2021/06/16 09:08:52;;;;;;;;;;;25.60;67.50;;;;;;5016168;28;19944;-84
2021/06/16 09:11:21;;;;;;;;;;;25.80;67.10;;;;;;5015968;28;19996;-84
2021/06/16 09:13:47;;;;;;;;;;;26.00;67.40;;;;;;5014425;28;19964;-85
2021/06/16 09:16:24;;;;;;;;;;;26.20;66.90;;;;;;5016137;28;19925;-85
2021/06/16 09:18:50;;;;;;;;;;;26.50;66.30;;;;;;5014613;28;19916;-85
2021/06/16 09:21:16;;;;;;;;;;;26.80;64.10;;;;;;5014633;28;19992;-84
2021/06/16 09:23:43;;;;;;;;;;;26.90;63.20;;;;;;5015877;28;20371;-85
2021/06/16 09:26:13;;;;;;;;;;;27.20;62.50;;;;;;5015610;28;19917;-85
2021/06/16 09:28:42;;;;;;;;;;;27.50;61.90;;;;;;5014413;28;19932;-85
2021/06/16 09:31:09;;;;;;;;;;;28.00;61.30;;;;;;5014756;28;19909;-85
2021/06/16 09:33:35;;;;;;;;;;;28.30;59.80;;;;;;5014604;28;20387;-84
2021/06/16 09:36:01;;;;;;;;;;;28.50;59.70;;;;;;5015456;28;20333;-84
2021/06/16 09:38:33;;;;;;;;;;;28.80;57.30;;;;;;5014465;28;19913;-84
2021/06/16 09:40:59;;;;;;;;;;;29.10;58.10;;;;;;5014255;28;20000;-84
2021/06/16 09:43:27;;;;;;;;;;;29.40;53.90;;;;;;5015663;28;19909;-85
2021/06/16 09:45:55;;;;;;;;;;;29.70;53.80;;;;;;5015389;28;19909;-85
2021/06/16 09:48:34;;;;;;;;;;;29.90;56.20;;;;;;5015385;28;19909;-85
2021/06/16 09:51:14;;;;;;;;;;;30.00;55.10;;;;;;5013983;28;19988;-85
2021/06/16 09:53:58;;;;;;;;;;;30.30;54.10;;;;;;5015375;28;19925;-85
2021/06/16 09:56:25;;;;;;;;;;;30.60;53.20;;;;;;5015214;28;19918;-85
2021/06/16 09:58:51;;;;;;;;;;;31.00;52.80;;;;;;5013979;28;19910;-85
2021/06/16 10:01:17;;;;;;;;;;;31.30;53.40;;;;;;5013715;28;20356;-85
2021/06/16 10:03:43;;;;;;;;;;;31.60;51.60;;;;;;5015031;28;19915;-85
2021/06/16 10:06:09;;;;;;;;;;;31.90;50.80;;;;;;5013597;28;19917;-85
2021/06/16 10:08:37;;;;;;;;;;;32.00;49.50;;;;;;5014972;28;19985;-85
2021/06/16 10:11:04;;;;;;;;;;;32.10;48.90;;;;;;5015083;28;19949;-85
2021/06/16 10:13:32;;;;;;;;;;;32.00;49.40;;;;;;5013496;28;19909;-85
2021/06/16 10:15:58;;;;;;;;;;;32.00;49.30;;;;;;5014234;28;19925;-84
2021/06/16 10:18:24;;;;;;;;;;;32.20;46.10;;;;;;5015043;28;19910;-84
2021/06/16 10:20:51;;;;;;;;;;;32.40;46.50;;;;;;5014693;28;20004;-84
2021/06/16 10:23:17;;;;;;;;;;;32.70;46.60;;;;;;5013648;28;19983;-85
2021/06/16 10:25:43;;;;;;;;;;;32.90;47.30;;;;;;5014701;28;20424;-85
2021/06/16 10:28:09;;;;;;;;;;;32.80;45.60;;;;;;5013441;28;20008;-85
2021/06/16 10:30:40;;;;;;;;;;;32.50;46.50;;;;;;5014201;28;20340;-84
2021/06/16 10:33:26;;;;;;;;;;;32.00;46.40;;;;;;5014701;28;19915;-85
2021/06/16 10:36:10;;;;;;;;;;;31.50;46.90;;;;;;5013933;28;20352;-86
2021/06/16 10:38:39;;;;;;;;;;;30.90;48.60;;;;;;5013854;28;20407;-85
2021/06/16 10:41:05;;;;;;;;;;;30.30;49.50;;;;;;5011620;28;19913;-84
2021/06/16 10:43:35;;;;;;;;;;;29.90;49.90;;;;;;5013288;28;19933;-84
2021/06/16 10:46:04;;;;;;;;;;;29.40;48.60;;;;;;5014421;28;19910;-84
2021/06/16 10:48:41;;;;;;;;;;;28.90;49.80;;;;;;5012926;28;19909;-84
2021/06/16 10:51:07;;;;;;;;;;;28.40;51.70;;;;;;5013115;28;19920;-84
2021/06/16 10:53:33;;;;;;;;;;;28.00;52.10;;;;;;5012637;28;19951;-85
2021/06/16 10:56:03;;;;;;;;;;;27.60;53.50;;;;;;5014635;28;20352;-84
2021/06/16 10:58:47;;;;;;;;;;;27.20;54.20;;;;;;5014129;28;19968;-84
2021/06/16 11:01:13;;;;;;;;;;;26.90;54.60;;;;;;5014457;28;20048;-84
2021/06/16 11:06:31;;;;;;;;;;;26.30;56.40;;;;;;5014103;28;19910;-84
2021/06/16 11:08:57;;;;;;;;;;;26.00;58.30;;;;;;5014326;28;19914;-84
2021/06/16 11:11:23;;;;;;;;;;;25.80;59.20;;;;;;5014564;28;19910;-84
2021/06/16 11:13:50;;;;;;;;;;;25.60;58.90;;;;;;5014135;28;20007;-84
2021/06/16 11:16:37;;;;;;;;;;;25.40;59.20;;;;;;5013986;28;19921;-84
2021/06/16 11:19:23;;;;;;;;;;;25.20;59.70;;;;;;5014401;28;19910;-83
2021/06/16 11:21:51;;;;;;;;;;;25.10;58.60;;;;;;5014662;28;19909;-85
2021/06/16 11:24:17;;;;;;;;;;;24.90;61.00;;;;;;5012829;28;20044;-85
2021/06/16 11:26:46;;;;;;;;;;;24.70;60.40;;;;;;5013435;28;20376;-84
2021/06/16 11:29:31;;;;;;;;;;;24.50;61.40;;;;;;5017912;28;20372;-84
2021/06/16 11:32:10;;;;;;;;;;;24.40;62.00;;;;;;5016115;28;19914;-84
2021/06/16 11:34:51;;;;;;;;;;;24.20;65.70;;;;;;5016383;28;19914;-83
2021/06/16 11:37:36;;;;;;;;;;;24.00;65.90;;;;;;5017756;28;19996;-84
2021/06/16 11:40:03;;;;;;;;;;;23.80;66.90;;;;;;5016539;28;20307;-84
2021/06/16 11:42:35;;;;;;;;;;;23.60;66.80;;;;;;5017630;28;19971;-84
2021/06/16 11:45:05;;;;;;;;;;;23.40;67.90;;;;;;5016659;28;19968;-84
2021/06/16 11:47:31;;;;;;;;;;;23.30;68.70;;;;;;5017640;28;20060;-85
2021/06/16 11:49:59;;;;;;;;;;;23.10;70.30;;;;;;5016837;28;19941;-85
2021/06/16 11:52:25;;;;;;;;;;;23.10;70.70;;;;;;5017536;28;19916;-85
2021/06/16 11:54:51;;;;;;;;;;;22.90;71.90;;;;;;5017411;28;19922;-85
2021/06/16 11:57:18;;;;;;;;;;;22.80;72.00;;;;;;5017882;28;19918;-85
2021/06/16 11:59:54;;;;;;;;;;;22.70;72.90;;;;;;5017478;28;20344;-85
2021/06/16 12:02:21;;;;;;;;;;;22.60;71.90;;;;;;5016150;28;20379;-84
2021/06/16 12:04:50;;;;;;;;;;;22.70;73.00;;;;;;5017396;28;20008;-84
2021/06/16 12:07:19;;;;;;;;;;;22.70;70.60;;;;;;5015642;28;19916;-85
2021/06/16 12:09:45;;;;;;;;;;;22.60;73.10;;;;;;5015637;28;19956;-84
2021/06/16 12:12:11;;;;;;;;;;;22.60;72.00;;;;;;5017549;28;19931;-84
2021/06/16 12:14:36;;;;;;;;;;;22.60;72.00;;;;;;5015761;28;20387;-84
2021/06/16 12:17:05;;;;;;;;;;;22.60;72.50;;;;;;5017510;28;19913;-84
2021/06/16 12:19:35;;;;;;;;;;;22.60;72.60;;;;;;5017733;28;20317;-84
2021/06/16 12:22:03;;;;;;;;;;;22.70;71.90;;;;;;5015611;28;19949;-84
2021/06/16 12:24:28;;;;;;;;;;;22.80;72.60;;;;;;5015827;28;19956;-85
2021/06/16 12:27:13;;;;;;;;;;;22.80;73.00;;;;;;5016856;28;20347;-84
2021/06/16 12:29:49;;;;;;;;;;;22.90;70.40;;;;;;5015515;28;19916;-84
2021/06/16 12:32:27;;;;;;;;;;;23.10;72.30;;;;;;5016829;28;19909;-84
2021/06/16 12:35:10;;;;;;;;;;;23.60;71.50;;;;;;5016478;28;19917;-84
2021/06/16 12:37:45;;;;;;;;;;;24.50;69.20;;;;;;5016667;28;19909;-85
2021/06/16 12:40:11;;;;;;;;;;;25.40;65.20;;;;;;5016188;28;19916;-85
2021/06/16 12:42:38;;;;;;;;;;;26.40;65.20;;;;;;5016953;28;19968;-85
2021/06/16 12:45:04;;;;;;;;;;;27.20;63.60;;;;;;5016746;28;19909;-85
2021/06/16 12:47:31;;;;;;;;;;;27.90;57.40;;;;;;5015276;28;19996;-85
2021/06/16 12:49:57;;;;;;;;;;;28.40;56.80;;;;;;5016612;28;19914;-85
2021/06/16 12:52:27;;;;;;;;;;;28.70;56.00;;;;;;5015234;28;19909;-86
2021/06/16 12:54:53;;;;;;;;;;;29.20;55.40;;;;;;5015396;28;20004;-85
2021/06/16 12:57:19;;;;;;;;;;;29.70;51.90;;;;;;5015157;28;19947;-85
2021/06/16 12:59:54;;;;;;;;;;;30.20;51.10;;;;;;5016299;28;19910;-85
2021/06/16 13:02:34;;;;;;;;;;;30.80;50.60;;;;;;5016273;28;20378;-85
2021/06/16 13:05:00;;;;;;;;;;;31.30;49.20;;;;;;5015953;28;20008;-85
2021/06/16 13:07:44;;;;;;;;;;;31.80;48.60;;;;;;5016160;28;19968;-86
2021/06/16 13:10:11;;;;;;;;;;;32.10;48.50;;;;;;5015997;28;20276;-85
2021/06/16 13:12:37;;;;;;;;;;;32.60;48.70;;;;;;5014751;28;19944;-85
2021/06/16 13:15:05;;;;;;;;;;;32.80;47.00;;;;;;5016061;28;20475;-85
2021/06/16 13:17:41;;;;;;;;;;;32.90;46.20;;;;;;5015858;28;19910;-85
2021/06/16 13:20:07;;;;;;;;;;;32.80;48.20;;;;;;5015741;28;20092;-85
2021/06/16 13:22:33;;;;;;;;;;;32.40;48.10;;;;;;5016010;28;19960;-85
2021/06/16 13:25:04;;;;;;;;;;;32.30;48.10;;;;;;5015943;28;19979;-85
2021/06/16 13:27:44;;;;;;;;;;;32.40;48.10;;;;;;5014172;28;19913;-85
2021/06/16 13:30:12;;;;;;;;;;;32.60;48.50;;;;;;5016053;28;19917;-85
2021/06/16 13:32:41;;;;;;;;;;;32.90;47.30;;;;;;5014363;28;19913;-85
2021/06/16 13:35:07;;;;;;;;;;;33.10;47.20;;;;;;5014149;28;20018;-85
2021/06/16 13:37:33;;;;;;;;;;;33.30;46.70;;;;;;5014380;28;20279;-84
2021/06/16 13:39:59;;;;;;;;;;;33.40;45.70;;;;;;5015519;28;19910;-84
2021/06/16 13:42:25;;;;;;;;;;;33.60;45.30;;;;;;5015502;28;19913;-84
2021/06/16 13:44:50;;;;;;;;;;;33.70;45.40;;;;;;5014178;28;19956;-84
2021/06/16 13:47:16;;;;;;;;;;;33.70;45.00;;;;;;5015486;28;19909;-84
2021/06/16 13:49:41;;;;;;;;;;;33.70;45.30;;;;;;5014403;28;19964;-84
2021/06/16 13:52:07;;;;;;;;;;;33.50;45.10;;;;;;5015277;28;19914;-85
2021/06/16 13:54:32;;;;;;;;;;;33.50;45.60;;;;;;5015022;28;20372;-85
2021/06/16 13:56:58;;;;;;;;;;;33.50;45.10;;;;;;5015469;28;19920;-85
2021/06/16 13:59:23;;;;;;;;;;;33.60;45.50;;;;;;5015265;28;20335;-85
2021/06/16 14:01:49;;;;;;;;;;;33.80;44.80;;;;;;5014221;28;19910;-85
2021/06/16 14:04:15;;;;;;;;;;;33.90;44.50;;;;;;5015127;28;20303;-86
2021/06/16 14:06:40;;;;;;;;;;;34.00;44.50;;;;;;5014149;28;20060;-86
2021/06/16 14:09:08;;;;;;;;;;;34.10;44.20;;;;;;5015047;28;20280;-85
2021/06/16 14:11:33;;;;;;;;;;;34.20;44.80;;;;;;5014844;28;19965;-85
2021/06/16 14:14:01;;;;;;;;;;;34.10;44.30;;;;;;5013532;28;20422;-85
2021/06/16 14:16:26;;;;;;;;;;;34.00;44.00;;;;;;5015303;28;20012;-86
2021/06/16 14:18:52;;;;;;;;;;;33.90;44.10;;;;;;5013479;28;19960;-85
2021/06/16 14:21:18;;;;;;;;;;;33.80;44.00;;;;;;5015506;28;19910;-85